createdAt,value
2019-02-28T00:00:16.162Z,8.07
2019-02-28T00:02:48.334Z,7.67
2019-02-28T00:05:19.105Z,8.67
2019-02-28T00:07:50.546Z,9.03
2019-02-28T00:10:21.105Z,8.23
2019-02-28T00:12:52.115Z,7.63
2019-02-28T00:15:29.694Z,7.50
2019-02-28T00:18:05.695Z,8.00
2019-02-28T00:20:36.662Z,8.10
2019-02-28T00:23:07.259Z,7.23
2019-02-28T00:25:41.289Z,8.80
2019-02-28T00:28:11.870Z,8.03
2019-02-28T00:30:44.992Z,7.77
2019-02-28T00:33:16.200Z,8.27
2019-02-28T00:35:49.663Z,8.33
2019-02-28T00:38:20.293Z,7.57
2019-02-28T00:40:51.126Z,8.13
2019-02-28T00:43:25.006Z,8.00
2019-02-28T00:45:54.956Z,8.13
2019-02-28T00:48:34.678Z,7.83
2019-02-28T00:51:06.268Z,7.47
2019-02-28T00:53:37.502Z,7.57
2019-02-28T00:56:09.070Z,8.43
2019-02-28T00:58:45.059Z,8.43
2019-02-28T01:01:32.936Z,8.33
2019-02-28T01:04:03.561Z,7.63
2019-02-28T01:06:34.190Z,7.40
2019-02-28T01:09:08.797Z,8.20
2019-02-28T01:11:39.538Z,7.93
2019-02-28T01:14:10.426Z,7.77
2019-02-28T01:16:41.553Z,7.37
2019-02-28T01:19:12.304Z,8.10
2019-02-28T01:21:43.234Z,7.97
2019-02-28T01:24:15.592Z,8.37
2019-02-28T01:26:47.344Z,8.33
2019-02-28T01:29:18.538Z,7.93
2019-02-28T01:31:49.629Z,7.77
2019-02-28T01:34:20.266Z,7.97
2019-02-28T01:36:50.766Z,7.27
2019-02-28T01:39:24.211Z,7.97
2019-02-28T01:41:54.743Z,7.60
2019-02-28T01:44:25.725Z,8.20
2019-02-28T01:46:56.291Z,8.60
2019-02-28T01:49:27.043Z,8.03
2019-02-28T01:51:57.614Z,8.57
2019-02-28T01:54:30.976Z,8.70
2019-02-28T01:57:01.727Z,7.80
2019-02-28T01:59:32.386Z,8.10
2019-02-28T02:02:06.765Z,8.03
2019-02-28T02:04:39.127Z,9.07
2019-02-28T02:07:09.854Z,7.60
2019-02-28T02:09:42.670Z,8.60
2019-02-28T02:12:13.163Z,8.30
2019-02-28T02:14:45.618Z,8.23
2019-02-28T02:17:16.046Z,7.83
2019-02-28T02:19:49.394Z,7.50
2019-02-28T02:22:22.012Z,7.70
2019-02-28T02:24:52.674Z,7.97
2019-02-28T02:27:23.250Z,7.80
2019-02-28T02:29:55.547Z,8.20
2019-02-28T02:32:26.479Z,9.03
2019-02-28T02:34:57.043Z,7.87
2019-02-28T02:37:30.512Z,8.60
2019-02-28T02:40:00.470Z,8.23
2019-02-28T02:42:32.461Z,7.80
2019-02-28T02:45:05.050Z,7.90
2019-02-28T02:47:36.988Z,8.07
2019-02-28T02:50:09.598Z,8.43
2019-02-28T02:52:40.269Z,7.67
2019-02-28T02:55:11.095Z,7.47
2019-02-28T02:57:41.700Z,7.70
2019-02-28T03:00:16.216Z,8.67
2019-02-28T03:02:47.036Z,8.07
2019-02-28T03:05:17.890Z,7.33
2019-02-28T03:07:48.466Z,7.83
2019-02-28T03:10:19.940Z,8.53
2019-02-28T03:12:50.635Z,7.63
2019-02-28T03:15:25.159Z,7.27
2019-02-28T03:17:53.446Z,7.87
2019-02-28T03:20:24.395Z,7.87
2019-02-28T03:22:55.218Z,7.60
2019-02-28T03:25:28.110Z,7.93
2019-02-28T03:27:58.669Z,8.27
2019-02-28T03:30:32.862Z,8.23
2019-02-28T03:33:02.812Z,7.47
2019-02-28T03:35:41.463Z,7.77
2019-02-28T03:38:10.202Z,7.47
2019-02-28T03:40:42.402Z,8.60
2019-02-28T03:43:13.288Z,8.97
2019-02-28T03:45:43.969Z,8.10
2019-02-28T03:48:14.542Z,8.97
2019-02-28T03:50:45.447Z,8.00
2019-02-28T03:53:20.004Z,8.33
2019-02-28T03:55:49.694Z,9.07
2019-02-28T03:58:21.074Z,7.30
2019-02-28T04:00:53.759Z,7.50
2019-02-28T04:03:25.332Z,8.80
2019-02-28T04:06:03.014Z,7.53
2019-02-28T04:08:31.484Z,8.23
2019-02-28T04:11:04.996Z,8.03
2019-02-28T04:13:35.517Z,7.87
2019-02-28T04:16:10.052Z,8.67
2019-02-28T04:18:46.087Z,7.70
2019-02-28T04:21:13.150Z,7.77
2019-02-28T04:23:44.289Z,8.10
2019-02-28T04:26:14.863Z,7.87
2019-02-28T04:28:45.417Z,9.83
2019-02-28T04:31:20.045Z,8.30
2019-02-28T04:33:48.275Z,8.60
2019-02-28T04:36:19.580Z,8.40
2019-02-28T04:38:51.679Z,7.57
2019-02-28T04:41:22.704Z,8.33
2019-02-28T04:43:53.418Z,8.67
2019-02-28T04:46:24.156Z,9.30
2019-02-28T04:48:54.827Z,9.27
2019-02-28T04:51:25.306Z,8.80
2019-02-28T04:53:55.941Z,8.40
2019-02-28T04:56:26.871Z,8.67
2019-02-28T04:58:59.518Z,7.90
2019-02-28T05:01:29.610Z,8.50
2019-02-28T05:04:02.185Z,9.00
2019-02-28T05:06:33.788Z,8.53
2019-02-28T05:09:05.846Z,9.30
2019-02-28T05:11:38.209Z,9.10
2019-02-28T05:14:11.775Z,9.20
2019-02-28T05:16:47.189Z,8.33
2019-02-28T05:19:14.982Z,8.57
2019-02-28T05:21:45.509Z,8.60
2019-02-28T05:24:16.166Z,9.90
2019-02-28T05:26:48.157Z,9.00
2019-02-28T05:29:19.135Z,8.83
2019-02-28T05:31:49.733Z,8.17
2019-02-28T05:34:20.635Z,8.70
2019-02-28T05:36:51.167Z,8.17
2019-02-28T05:39:23.650Z,8.70
2019-02-28T05:41:57.167Z,9.60
2019-02-28T05:44:27.758Z,8.47
2019-02-28T05:47:00.760Z,8.97
2019-02-28T05:49:31.401Z,10.00
2019-02-28T05:52:02.384Z,9.23
2019-02-28T05:54:33.083Z,8.53
2019-02-28T05:57:04.650Z,8.93
2019-02-28T05:59:35.954Z,9.57
2019-02-28T06:02:06.654Z,8.70
2019-02-28T06:04:40.669Z,10.53
2019-02-28T06:07:11.498Z,9.60
2019-02-28T06:09:42.211Z,8.80
2019-02-28T06:12:12.991Z,8.97
2019-02-28T06:14:43.959Z,9.90
2019-02-28T06:17:17.357Z,8.13
2019-02-28T06:19:49.989Z,8.97
2019-02-28T06:22:22.251Z,9.70
2019-02-28T06:24:52.932Z,8.83
2019-02-28T06:27:26.556Z,22.20
2019-02-28T06:29:59.378Z,9.67
2019-02-28T06:32:29.986Z,10.10
2019-02-28T06:35:00.840Z,8.33
2019-02-28T06:37:31.477Z,9.03
2019-02-28T06:40:02.318Z,9.70
2019-02-28T06:42:33.937Z,8.93
2019-02-28T06:45:05.057Z,9.70
2019-02-28T06:47:36.351Z,10.00
2019-02-28T06:50:13.016Z,9.90
2019-02-28T06:52:45.419Z,9.13
2019-02-28T06:55:20.834Z,9.50
2019-02-28T06:57:51.893Z,8.97
2019-02-28T07:00:25.740Z,9.53
2019-02-28T07:02:57.346Z,9.90
2019-02-28T07:05:27.918Z,10.23
2019-02-28T07:08:01.645Z,9.23
2019-02-28T07:10:35.461Z,9.70
2019-02-28T07:13:11.844Z,9.70
2019-02-28T07:15:42.200Z,8.70
2019-02-28T07:18:13.624Z,9.87
2019-02-28T07:20:47.151Z,9.17
2019-02-28T07:23:18.412Z,9.87
2019-02-28T07:25:49.030Z,9.17
2019-02-28T07:28:19.701Z,9.33
2019-02-28T07:30:51.118Z,9.57
2019-02-28T07:33:22.164Z,10.87
2019-02-28T07:35:54.549Z,10.57
2019-02-28T07:38:29.003Z,9.57
2019-02-28T07:40:58.323Z,8.83
2019-02-28T07:43:29.363Z,9.23
2019-02-28T07:46:00.417Z,10.43
2019-02-28T07:48:33.422Z,8.90
2019-02-28T07:51:05.003Z,9.77
2019-02-28T07:53:36.054Z,10.10
2019-02-28T07:56:10.134Z,10.23
2019-02-28T07:58:44.127Z,15.90
2019-02-28T08:01:18.366Z,10.83
2019-02-28T08:03:50.211Z,10.23
2019-02-28T08:06:21.498Z,10.57
2019-02-28T08:08:52.216Z,9.97
2019-02-28T08:11:25.956Z,9.53
2019-02-28T08:13:57.238Z,9.97
2019-02-28T08:16:30.701Z,10.37
2019-02-28T08:19:04.980Z,9.67
2019-02-28T08:21:43.936Z,10.13
2019-02-28T08:24:15.189Z,10.43
2019-02-28T08:26:47.404Z,10.10
2019-02-28T08:29:18.282Z,9.90
2019-02-28T08:31:49.007Z,11.40
2019-02-28T08:34:20.611Z,10.10
2019-02-28T08:36:52.336Z,11.60
2019-02-28T08:39:24.244Z,11.07
2019-02-28T08:42:02.838Z,11.30
2019-02-28T08:44:28.375Z,11.57
2019-02-28T08:47:11.107Z,11.63
2019-02-28T08:50:09.185Z,12.10
2019-02-28T08:52:59.735Z,12.33
2019-02-28T08:55:33.431Z,13.30
2019-02-28T08:58:07.139Z,12.20
2019-02-28T09:00:39.077Z,13.30
2019-02-28T09:03:11.698Z,12.87
2019-02-28T09:05:44.851Z,13.80
2019-02-28T09:08:15.993Z,13.80
2019-02-28T09:10:47.895Z,13.67
2019-02-28T09:13:25.031Z,14.43
2019-02-28T09:15:56.218Z,14.37
2019-02-28T09:18:27.426Z,15.33
2019-02-28T09:20:58.168Z,14.57
2019-02-28T09:23:34.410Z,16.73
2019-02-28T09:26:12.033Z,16.60
2019-02-28T09:28:44.364Z,15.23
2019-02-28T09:31:15.982Z,16.57
2019-02-28T09:33:59.640Z,15.53
2019-02-28T09:36:33.274Z,15.67
2019-02-28T09:39:04.598Z,15.73
2019-02-28T09:41:40.147Z,16.27
2019-02-28T09:44:11.647Z,15.77
2019-02-28T09:46:42.468Z,16.40
2019-02-28T09:49:17.080Z,16.13
2019-02-28T09:51:47.823Z,16.30
2019-02-28T09:54:21.421Z,16.47
2019-02-28T09:56:51.086Z,16.07
2019-02-28T09:59:24.709Z,15.83
2019-02-28T10:02:04.929Z,18.67
2019-02-28T10:04:35.280Z,18.57
2019-02-28T10:07:07.650Z,17.67
2019-02-28T10:09:44.249Z,18.13
2019-02-28T10:12:15.897Z,18.40
2019-02-28T10:14:46.895Z,18.13
2019-02-28T10:17:29.033Z,17.27
2019-02-28T10:20:02.214Z,18.37
2019-02-28T10:22:34.260Z,18.40
2019-02-28T10:25:11.623Z,17.97
2019-02-28T10:27:42.894Z,17.50
2019-02-28T10:30:16.779Z,17.70
2019-02-28T10:32:54.305Z,18.70
2019-02-28T10:35:25.515Z,17.57
2019-02-28T10:37:58.533Z,17.23
2019-02-28T10:40:32.384Z,17.67
2019-02-28T10:43:07.891Z,19.10
2019-02-28T10:45:42.035Z,17.43
2019-02-28T10:48:11.083Z,17.63
2019-02-28T10:50:41.833Z,18.60
2019-02-28T10:53:12.537Z,17.10
2019-02-28T10:55:45.078Z,16.27
2019-02-28T10:58:16.564Z,17.30
2019-02-28T11:00:54.110Z,17.70
2019-02-28T11:03:31.750Z,17.73
2019-02-28T11:06:01.770Z,19.07
2019-02-28T11:08:36.493Z,19.07
2019-02-28T11:11:10.430Z,18.37
2019-02-28T11:13:42.630Z,19.33
2019-02-28T11:16:13.775Z,17.67
2019-02-28T11:18:45.013Z,19.80
2019-02-28T11:21:16.005Z,20.80
2019-02-28T11:23:50.079Z,21.20
2019-02-28T11:26:19.079Z,19.80
2019-02-28T11:28:53.028Z,21.23
2019-02-28T11:31:25.830Z,19.73
2019-02-28T11:34:00.434Z,22.30
2019-02-28T11:36:34.164Z,21.37
2019-02-28T11:39:12.458Z,21.20
2019-02-28T11:41:43.239Z,22.63
2019-02-28T11:44:13.897Z,23.77
2019-02-28T11:46:47.841Z,23.13
2019-02-28T11:49:19.393Z,22.97
2019-02-28T11:51:53.038Z,22.80
2019-02-28T11:54:23.297Z,21.57
2019-02-28T11:56:54.088Z,22.47
2019-02-28T11:59:31.155Z,22.63
2019-02-28T12:02:05.739Z,22.53
2019-02-28T12:04:41.769Z,24.00
2019-02-28T12:07:12.488Z,22.23
2019-02-28T12:09:43.340Z,23.57
2019-02-28T12:12:14.249Z,24.03
2019-02-28T12:14:47.931Z,22.80
2019-02-28T12:17:21.633Z,20.10
2019-02-28T12:20:03.749Z,23.20
2019-02-28T12:22:40.227Z,23.17
2019-02-28T12:25:12.838Z,23.07
2019-02-28T12:27:51.150Z,23.73
2019-02-28T12:30:26.673Z,22.50
2019-02-28T12:32:57.310Z,23.87
2019-02-28T12:35:29.272Z,22.97
2019-02-28T12:38:00.249Z,23.37
2019-02-28T12:40:36.009Z,23.23
2019-02-28T12:43:09.709Z,21.30
2019-02-28T12:45:40.739Z,22.07
2019-02-28T12:48:13.751Z,21.73
2019-02-28T12:50:46.265Z,20.93
2019-02-28T12:53:25.248Z,23.80
2019-02-28T12:55:55.508Z,22.03
2019-02-28T12:58:36.406Z,22.43
2019-02-28T13:01:02.830Z,23.27
2019-02-28T13:03:34.495Z,22.97
2019-02-28T13:06:11.530Z,23.93
2019-02-28T13:08:42.586Z,21.47
2019-02-28T13:11:13.403Z,22.43
2019-02-28T13:13:44.518Z,21.47
2019-02-28T13:16:21.716Z,20.90
2019-02-28T13:18:53.080Z,21.30
2019-02-28T13:21:24.227Z,21.10
2019-02-28T13:23:57.982Z,22.43
2019-02-28T13:26:33.755Z,21.23
2019-02-28T13:29:04.638Z,20.43
2019-02-28T13:31:37.945Z,22.10
2019-02-28T13:34:12.357Z,21.50
2019-02-28T13:36:43.313Z,22.47
2019-02-28T13:39:14.366Z,23.07
2019-02-28T13:41:47.749Z,21.50
2019-02-28T13:44:25.590Z,24.03
2019-02-28T13:46:56.344Z,21.60
2019-02-28T13:49:27.754Z,27.17
2019-02-28T13:51:59.267Z,28.90
2019-02-28T13:54:30.349Z,27.83
2019-02-28T13:57:01.250Z,26.43
2019-02-28T13:59:32.682Z,22.93
2019-02-28T14:02:07.674Z,22.37
2019-02-28T14:04:58.755Z,22.37
2019-02-28T14:07:33.691Z,22.77
2019-02-28T14:10:04.529Z,22.13
2019-02-28T14:12:39.765Z,21.23
2019-02-28T14:15:15.423Z,23.03
2019-02-28T14:17:47.297Z,22.27
2019-02-28T14:20:18.493Z,22.57
2019-02-28T14:22:49.187Z,20.93
2019-02-28T14:25:22.668Z,21.73
2019-02-28T14:27:53.440Z,20.37
2019-02-28T14:30:24.827Z,19.83
2019-02-28T14:32:59.150Z,20.70
2019-02-28T14:35:38.425Z,22.43
2019-02-28T14:38:12.500Z,21.93
2019-02-28T14:40:43.565Z,21.30
2019-02-28T14:43:21.631Z,21.93
2019-02-28T14:45:52.449Z,21.73
2019-02-28T14:48:23.271Z,21.07
2019-02-28T14:50:58.873Z,19.50
2019-02-28T14:53:34.005Z,20.57
2019-02-28T14:56:08.436Z,20.93
2019-02-28T14:58:40.341Z,25.20
2019-02-28T15:01:18.002Z,22.67
2019-02-28T15:03:48.095Z,24.70
2019-02-28T15:06:22.326Z,22.77
2019-02-28T15:08:57.954Z,23.80
2019-02-28T15:11:54.017Z,24.27
2019-02-28T15:14:32.217Z,24.60
2019-02-28T15:17:08.409Z,25.53
2019-02-28T15:19:39.325Z,27.50
2019-02-28T15:22:21.319Z,25.73
2019-02-28T15:24:53.086Z,26.07
2019-02-28T15:27:30.316Z,25.63
2019-02-28T15:30:06.757Z,24.43
2019-02-28T15:32:37.863Z,22.63
2019-02-28T15:35:15.053Z,22.20
2019-02-28T15:37:46.092Z,23.23
2019-02-28T15:40:21.519Z,22.00
2019-02-28T15:42:56.454Z,21.47
2019-02-28T15:45:27.111Z,21.77
2019-02-28T15:48:00.400Z,20.90
2019-02-28T15:50:37.385Z,19.60
2019-02-28T15:53:15.453Z,20.90
2019-02-28T15:55:46.192Z,20.43
2019-02-28T15:58:31.092Z,20.73
2019-02-28T16:01:09.533Z,20.03
2019-02-28T16:03:44.252Z,19.40
2019-02-28T16:06:19.583Z,18.40
2019-02-28T16:08:52.789Z,19.03
2019-02-28T16:11:24.159Z,19.23
2019-02-28T16:14:00.448Z,20.07
2019-02-28T16:16:34.414Z,18.13
2019-02-28T16:19:06.274Z,18.90
2019-02-28T16:21:40.569Z,20.03
2019-02-28T16:24:10.889Z,17.53
2019-02-28T16:26:49.050Z,18.13
2019-02-28T16:29:29.955Z,18.33
2019-02-28T16:32:09.295Z,18.90
2019-02-28T16:34:45.248Z,19.13
2019-02-28T16:37:20.739Z,17.97
2019-02-28T16:39:57.167Z,18.57
2019-02-28T16:42:47.662Z,18.03
2019-02-28T16:45:37.490Z,17.70
2019-02-28T16:48:13.362Z,18.57
2019-02-28T16:50:53.795Z,18.10
2019-02-28T16:53:28.121Z,17.23
2019-02-28T16:56:02.666Z,16.93
2019-02-28T16:58:34.151Z,17.93
2019-02-28T17:01:04.988Z,18.33
2019-02-28T17:03:38.421Z,18.13
2019-02-28T17:06:11.566Z,18.93
2019-02-28T17:08:57.164Z,19.17
2019-02-28T17:11:31.235Z,19.83
2019-02-28T17:14:24.226Z,16.57
2019-02-28T17:17:11.883Z,19.53
2019-02-28T17:19:40.884Z,18.00
2019-02-28T17:22:11.895Z,20.03
2019-02-28T17:24:46.148Z,18.67
2019-02-28T17:27:41.400Z,18.23
2019-02-28T17:30:32.957Z,17.07
2019-02-28T17:33:12.477Z,16.03
2019-02-28T17:35:43.151Z,17.20
2019-02-28T17:38:14.116Z,17.00
2019-02-28T17:40:45.799Z,16.50
2019-02-28T17:43:16.890Z,18.40
2019-02-28T17:45:50.625Z,18.77
2019-02-28T17:48:52.498Z,20.10
2019-02-28T17:51:49.597Z,20.13
2019-02-28T17:54:57.337Z,19.57
2019-02-28T17:57:52.385Z,19.93
2019-02-28T18:01:05.666Z,18.97
2019-02-28T18:04:28.862Z,18.73
2019-02-28T18:07:53.638Z,18.27
2019-02-28T18:11:09.763Z,17.50
2019-02-28T18:14:21.153Z,17.13
2019-02-28T18:17:33.488Z,17.30
2019-02-28T18:20:47.289Z,17.23
2019-02-28T18:23:44.624Z,17.20
2019-02-28T18:27:04.086Z,17.87
2019-02-28T18:30:27.571Z,16.17
2019-02-28T18:36:12.938Z,16.00
2019-02-28T18:38:51.099Z,16.80
2019-02-28T18:41:43.176Z,16.40
2019-02-28T18:44:27.427Z,15.10
2019-02-28T18:47:13.159Z,15.90
2019-02-28T18:49:54.300Z,16.83
2019-02-28T18:52:27.584Z,16.33
2019-02-28T18:55:05.789Z,15.33
2019-02-28T18:57:34.319Z,16.90
2019-02-28T19:00:08.592Z,14.53
2019-02-28T19:02:39.595Z,15.53
2019-02-28T19:05:15.160Z,16.93
2019-02-28T19:07:50.145Z,16.97
2019-02-28T19:10:24.416Z,17.30
2019-02-28T19:12:58.174Z,16.73
2019-02-28T19:15:29.007Z,16.77
2019-02-28T19:18:06.551Z,17.60
2019-02-28T19:20:45.815Z,16.77
2019-02-28T19:23:18.461Z,15.77
2019-02-28T19:25:55.946Z,15.83
2019-02-28T19:28:26.907Z,16.87
2019-02-28T19:30:57.777Z,18.13
2019-02-28T19:33:31.176Z,18.07
2019-02-28T19:36:13.170Z,16.77
2019-02-28T19:39:24.043Z,18.27
2019-02-28T19:41:40.087Z,16.57
2019-02-28T19:44:13.225Z,17.13
2019-02-28T19:46:45.409Z,16.80
2019-02-28T19:49:16.877Z,17.10
2019-02-28T19:51:47.640Z,17.20
2019-02-28T19:54:30.066Z,16.80
2019-02-28T19:57:04.090Z,16.27
2019-02-28T19:59:42.257Z,16.73
2019-02-28T20:02:19.040Z,17.20
2019-02-28T20:05:10.374Z,18.13
2019-02-28T20:07:41.282Z,18.23
2019-02-28T20:10:18.064Z,16.17
2019-02-28T20:12:51.260Z,16.23
2019-02-28T20:15:28.492Z,16.30
2019-02-28T20:18:00.335Z,16.33
2019-02-28T20:20:34.283Z,16.70
2019-02-28T20:23:09.851Z,18.80
2019-02-28T20:25:40.519Z,20.50
2019-02-28T20:28:19.100Z,20.10
2019-02-28T20:31:02.606Z,22.13
2019-02-28T20:34:03.247Z,21.73
2019-02-28T20:36:53.208Z,19.80
2019-02-28T20:39:25.977Z,21.23
2019-02-28T20:41:59.905Z,19.40
2019-02-28T20:44:30.269Z,19.50
2019-02-28T20:47:07.968Z,18.87
2019-02-28T20:49:44.596Z,21.10
2019-02-28T20:52:17.114Z,21.77
2019-02-28T20:55:02.879Z,20.03
2019-02-28T20:57:36.215Z,21.07
2019-02-28T21:00:24.342Z,21.93
2019-02-28T21:02:59.285Z,21.00
2019-02-28T21:05:39.295Z,23.83
2019-02-28T21:08:13.305Z,23.40
2019-02-28T21:10:47.356Z,22.60
2019-02-28T21:13:31.693Z,23.50
2019-02-28T21:16:03.019Z,23.60
2019-02-28T21:18:38.626Z,24.73
2019-02-28T21:21:08.577Z,26.63
2019-02-28T21:23:41.800Z,23.90
2019-02-28T21:26:16.164Z,24.30
2019-02-28T21:28:52.904Z,25.53
2019-02-28T21:31:30.281Z,24.60
2019-02-28T21:34:01.035Z,24.10
2019-02-28T21:36:32.220Z,22.60
2019-02-28T21:39:15.226Z,23.10
2019-02-28T21:42:01.303Z,22.37
2019-02-28T21:44:40.375Z,22.93
2019-02-28T21:47:14.865Z,22.30
2019-02-28T21:50:00.700Z,22.40
2019-02-28T21:52:37.194Z,22.33
2019-02-28T21:55:13.305Z,23.70
2019-02-28T21:57:44.400Z,25.97
2019-02-28T22:00:20.112Z,25.90
2019-02-28T22:02:50.743Z,28.07
2019-02-28T22:05:32.481Z,28.97
2019-02-28T22:08:04.137Z,28.00
2019-02-28T22:10:34.769Z,26.00
2019-02-28T22:13:10.333Z,25.97
2019-02-28T22:15:40.919Z,26.53
2019-02-28T22:18:11.452Z,26.37
2019-02-28T22:20:43.560Z,26.10
2019-02-28T22:23:19.895Z,25.30
2019-02-28T22:25:50.753Z,26.27
2019-02-28T22:28:21.718Z,26.90
2019-02-28T22:31:11.413Z,26.93
2019-02-28T22:33:51.883Z,24.20
2019-02-28T22:36:35.038Z,23.37
2019-02-28T22:39:07.031Z,22.50
2019-02-28T22:41:42.447Z,21.40
2019-02-28T22:44:17.062Z,20.17
2019-02-28T22:46:49.328Z,20.60
2019-02-28T22:49:19.933Z,19.57
2019-02-28T22:51:50.504Z,21.57
2019-02-28T22:54:21.090Z,19.50
2019-02-28T22:56:51.876Z,20.30
2019-02-28T22:59:23.604Z,19.67
2019-02-28T23:01:55.474Z,17.53
2019-02-28T23:04:26.384Z,17.33
2019-02-28T23:06:56.961Z,17.10
2019-02-28T23:09:27.752Z,18.13
2019-02-28T23:11:58.529Z,17.53
2019-02-28T23:14:31.834Z,16.67
2019-02-28T23:17:02.337Z,17.67
2019-02-28T23:19:33.829Z,17.93
2019-02-28T23:22:04.520Z,16.80
2019-02-28T23:24:35.119Z,17.10
2019-02-28T23:27:24.080Z,17.40
2019-02-28T23:30:14.107Z,15.87
2019-02-28T23:33:06.141Z,16.07
2019-02-28T23:35:41.429Z,15.77
2019-02-28T23:38:11.974Z,14.20
2019-02-28T23:40:42.880Z,15.00
2019-02-28T23:43:13.443Z,13.30
2019-02-28T23:45:44.039Z,12.60
2019-02-28T23:48:15.391Z,13.07
2019-02-28T23:50:46.367Z,13.07
2019-02-28T23:53:17.181Z,13.33
2019-02-28T23:55:47.778Z,12.97
2019-02-28T23:58:18.354Z,11.43
